sensor_id;sensor_type;location;lat;lon;timestamp;temperature;humidity
53752;DHT22;41095;53.090;6.692;2022-07-12T00:01:46;16.70;99.90
53752;DHT22;41095;53.090;6.692;2022-07-12T00:04:11;16.70;99.90
53752;DHT22;41095;53.090;6.692;2022-07-12T00:06:37;16.70;99.90
53752;DHT22;41095;53.090;6.692;2022-07-12T00:09:04;16.70;99.90
53752;DHT22;41095;53.090;6.692;2022-07-12T00:11:29;16.70;99.90
53752;DHT22;41095;53.090;6.692;2022-07-12T00:13:56;16.70;99.90
53752;DHT22;41095;53.090;6.692;2022-07-12T00:16:22;16.60;99.90
53752;DHT22;41095;53.090;6.692;2022-07-12T00:18:48;16.60;99.90
53752;DHT22;41095;53.090;6.692;2022-07-12T00:21:14;16.50;99.90
53752;DHT22;41095;53.090;6.692;2022-07-12T00:23:39;16.50;99.90
53752;DHT22;41095;53.090;6.692;2022-07-12T00:26:05;16.50;99.90
53752;DHT22;41095;53.090;6.692;2022-07-12T00:28:31;16.50;99.90
53752;DHT22;41095;53.090;6.692;2022-07-12T00:30:58;16.50;99.90
53752;DHT22;41095;53.090;6.692;2022-07-12T00:33:24;16.50;99.90
53752;DHT22;41095;53.090;6.692;2022-07-12T00:35:49;16.50;99.90
53752;DHT22;41095;53.090;6.692;2022-07-12T00:38:15;16.50;99.90
53752;DHT22;41095;53.090;6.692;2022-07-12T00:40:41;16.40;99.90
53752;DHT22;41095;53.090;6.692;2022-07-12T00:43:07;16.40;99.90
53752;DHT22;41095;53.090;6.692;2022-07-12T00:45:32;16.40;99.90
53752;DHT22;41095;53.090;6.692;2022-07-12T00:47:59;16.40;99.90
53752;DHT22;41095;53.090;6.692;2022-07-12T00:50:25;16.30;99.90
53752;DHT22;41095;53.090;6.692;2022-07-12T00:52:53;16.30;99.90
53752;DHT22;41095;53.090;6.692;2022-07-12T00:55:20;16.40;99.90
53752;DHT22;41095;53.090;6.692;2022-07-12T00:57:46;16.30;99.90
53752;DHT22;41095;53.090;6.692;2022-07-12T01:00:22;16.40;99.90
53752;DHT22;41095;53.090;6.692;2022-07-12T01:02:49;16.40;99.90
53752;DHT22;41095;53.090;6.692;2022-07-12T01:05:16;16.40;99.90
53752;DHT22;41095;53.090;6.692;2022-07-12T01:07:42;16.40;99.90
53752;DHT22;41095;53.090;6.692;2022-07-12T01:10:09;16.40;99.90
53752;DHT22;41095;53.090;6.692;2022-07-12T01:12:35;16.40;99.90
53752;DHT22;41095;53.090;6.692;2022-07-12T01:15:04;16.40;99.90
53752;DHT22;41095;53.090;6.692;2022-07-12T01:17:30;16.30;99.90
53752;DHT22;41095;53.090;6.692;2022-07-12T01:19:58;16.40;99.90
53752;DHT22;41095;53.090;6.692;2022-07-12T01:22:30;16.30;99.90
53752;DHT22;41095;53.090;6.692;2022-07-12T01:24:57;16.30;99.90
53752;DHT22;41095;53.090;6.692;2022-07-12T01:27:22;16.30;99.90
53752;DHT22;41095;53.090;6.692;2022-07-12T01:29:48;16.30;99.90
53752;DHT22;41095;53.090;6.692;2022-07-12T01:32:14;16.30;99.90
53752;DHT22;41095;53.090;6.692;2022-07-12T01:34:54;16.30;99.90
53752;DHT22;41095;53.090;6.692;2022-07-12T01:37:21;16.30;99.90
53752;DHT22;41095;53.090;6.692;2022-07-12T01:39:49;16.30;99.90
53752;DHT22;41095;53.090;6.692;2022-07-12T01:42:15;16.30;99.90
53752;DHT22;41095;53.090;6.692;2022-07-12T01:44:41;16.30;99.90
53752;DHT22;41095;53.090;6.692;2022-07-12T01:47:07;16.30;99.90
53752;DHT22;41095;53.090;6.692;2022-07-12T01:49:32;16.30;99.90
53752;DHT22;41095;53.090;6.692;2022-07-12T01:51:58;16.20;99.90
53752;DHT22;41095;53.090;6.692;2022-07-12T01:54:25;16.20;99.90
53752;DHT22;41095;53.090;6.692;2022-07-12T01:56:54;16.20;99.90
53752;DHT22;41095;53.090;6.692;2022-07-12T01:59:20;16.20;99.90
53752;DHT22;41095;53.090;6.692;2022-07-12T02:01:46;16.20;99.90
53752;DHT22;41095;53.090;6.692;2022-07-12T02:04:15;16.30;99.90
53752;DHT22;41095;53.090;6.692;2022-07-12T02:06:41;16.20;99.90
53752;DHT22;41095;53.090;6.692;2022-07-12T02:09:07;16.30;99.90
53752;DHT22;41095;53.090;6.692;2022-07-12T02:11:33;16.30;99.90
53752;DHT22;41095;53.090;6.692;2022-07-12T02:13:59;16.30;99.90
53752;DHT22;41095;53.090;6.692;2022-07-12T02:16:25;16.30;99.90
53752;DHT22;41095;53.090;6.692;2022-07-12T02:18:51;16.30;99.90
53752;DHT22;41095;53.090;6.692;2022-07-12T02:21:16;16.30;99.90
53752;DHT22;41095;53.090;6.692;2022-07-12T02:23:42;16.20;99.90
53752;DHT22;41095;53.090;6.692;2022-07-12T02:26:08;16.20;99.90
53752;DHT22;41095;53.090;6.692;2022-07-12T02:28:34;16.20;99.90
53752;DHT22;41095;53.090;6.692;2022-07-12T02:30:59;16.20;99.90
53752;DHT22;41095;53.090;6.692;2022-07-12T02:33:25;16.10;99.90
53752;DHT22;41095;53.090;6.692;2022-07-12T02:35:51;16.20;99.90
53752;DHT22;41095;53.090;6.692;2022-07-12T02:38:16;16.20;99.90
53752;DHT22;41095;53.090;6.692;2022-07-12T02:40:42;16.20;99.90
53752;DHT22;41095;53.090;6.692;2022-07-12T02:43:28;16.20;99.90
53752;DHT22;41095;53.090;6.692;2022-07-12T02:46:16;16.20;99.90
53752;DHT22;41095;53.090;6.692;2022-07-12T02:48:41;16.10;99.90
53752;DHT22;41095;53.090;6.692;2022-07-12T02:51:07;16.10;99.90
53752;DHT22;41095;53.090;6.692;2022-07-12T02:53:35;16.10;99.90
53752;DHT22;41095;53.090;6.692;2022-07-12T02:56:01;16.10;99.90
53752;DHT22;41095;53.090;6.692;2022-07-12T02:58:27;16.10;99.90
53752;DHT22;41095;53.090;6.692;2022-07-12T03:00:53;16.10;99.90
53752;DHT22;41095;53.090;6.692;2022-07-12T03:03:19;16.10;99.90
53752;DHT22;41095;53.090;6.692;2022-07-12T03:05:45;16.10;99.90
53752;DHT22;41095;53.090;6.692;2022-07-12T03:08:11;16.10;99.90
53752;DHT22;41095;53.090;6.692;2022-07-12T03:10:38;16.10;99.90
53752;DHT22;41095;53.090;6.692;2022-07-12T03:13:04;16.10;99.90
53752;DHT22;41095;53.090;6.692;2022-07-12T03:15:31;16.00;99.90
53752;DHT22;41095;53.090;6.692;2022-07-12T03:17:58;16.00;99.90
53752;DHT22;41095;53.090;6.692;2022-07-12T03:20:24;16.00;99.90
53752;DHT22;41095;53.090;6.692;2022-07-12T03:22:50;15.90;99.90
53752;DHT22;41095;53.090;6.692;2022-07-12T03:25:19;16.00;99.90
53752;DHT22;41095;53.090;6.692;2022-07-12T03:27:44;15.90;99.90
53752;DHT22;41095;53.090;6.692;2022-07-12T03:30:11;15.90;99.90
53752;DHT22;41095;53.090;6.692;2022-07-12T03:32:37;16.00;99.90
53752;DHT22;41095;53.090;6.692;2022-07-12T03:35:03;15.90;99.90
53752;DHT22;41095;53.090;6.692;2022-07-12T03:37:51;15.90;99.90
53752;DHT22;41095;53.090;6.692;2022-07-12T03:40:17;16.00;99.90
53752;DHT22;41095;53.090;6.692;2022-07-12T03:42:44;15.90;99.90
53752;DHT22;41095;53.090;6.692;2022-07-12T03:45:11;15.90;99.90
53752;DHT22;41095;53.090;6.692;2022-07-12T03:47:38;15.90;99.90
53752;DHT22;41095;53.090;6.692;2022-07-12T03:50:11;15.90;99.90
53752;DHT22;41095;53.090;6.692;2022-07-12T03:52:38;15.90;99.90
53752;DHT22;41095;53.090;6.692;2022-07-12T03:55:05;15.90;99.90
53752;DHT22;41095;53.090;6.692;2022-07-12T03:57:31;15.90;99.90
53752;DHT22;41095;53.090;6.692;2022-07-12T03:59:56;15.90;99.90
53752;DHT22;41095;53.090;6.692;2022-07-12T04:02:23;15.90;99.90
53752;DHT22;41095;53.090;6.692;2022-07-12T04:04:48;15.90;99.90
53752;DHT22;41095;53.090;6.692;2022-07-12T04:07:14;15.90;99.90
53752;DHT22;41095;53.090;6.692;2022-07-12T04:09:40;15.90;99.90
53752;DHT22;41095;53.090;6.692;2022-07-12T04:12:06;15.90;99.90
53752;DHT22;41095;53.090;6.692;2022-07-12T04:14:32;15.90;99.90
53752;DHT22;41095;53.090;6.692;2022-07-12T04:16:58;15.90;99.90
53752;DHT22;41095;53.090;6.692;2022-07-12T04:19:24;15.90;99.90
53752;DHT22;41095;53.090;6.692;2022-07-12T04:21:53;16.00;99.90
53752;DHT22;41095;53.090;6.692;2022-07-12T04:24:21;15.90;99.90
53752;DHT22;41095;53.090;6.692;2022-07-12T04:26:46;15.80;99.90
53752;DHT22;41095;53.090;6.692;2022-07-12T04:29:12;15.80;99.90
53752;DHT22;41095;53.090;6.692;2022-07-12T04:31:38;15.80;99.90
53752;DHT22;41095;53.090;6.692;2022-07-12T04:34:03;15.70;99.90
53752;DHT22;41095;53.090;6.692;2022-07-12T04:36:29;15.80;99.90
53752;DHT22;41095;53.090;6.692;2022-07-12T04:38:54;15.80;99.90
53752;DHT22;41095;53.090;6.692;2022-07-12T04:41:20;15.80;99.90
53752;DHT22;41095;53.090;6.692;2022-07-12T04:43:46;15.80;99.90
53752;DHT22;41095;53.090;6.692;2022-07-12T04:46:11;15.80;99.90
53752;DHT22;41095;53.090;6.692;2022-07-12T04:48:37;15.80;99.90
53752;DHT22;41095;53.090;6.692;2022-07-12T04:51:03;15.80;99.90
53752;DHT22;41095;53.090;6.692;2022-07-12T04:53:29;15.80;99.90
53752;DHT22;41095;53.090;6.692;2022-07-12T04:55:55;15.80;99.90
53752;DHT22;41095;53.090;6.692;2022-07-12T04:58:22;15.90;99.90
53752;DHT22;41095;53.090;6.692;2022-07-12T05:00:48;15.90;99.90
53752;DHT22;41095;53.090;6.692;2022-07-12T05:03:14;16.00;99.90
53752;DHT22;41095;53.090;6.692;2022-07-12T05:05:40;16.10;99.90
53752;DHT22;41095;53.090;6.692;2022-07-12T05:08:06;16.20;99.90
53752;DHT22;41095;53.090;6.692;2022-07-12T05:10:31;16.40;99.90
53752;DHT22;41095;53.090;6.692;2022-07-12T05:12:57;16.40;99.90
53752;DHT22;41095;53.090;6.692;2022-07-12T05:15:23;16.30;99.90
53752;DHT22;41095;53.090;6.692;2022-07-12T05:17:48;16.20;99.90
53752;DHT22;41095;53.090;6.692;2022-07-12T05:20:14;16.10;99.90
53752;DHT22;41095;53.090;6.692;2022-07-12T05:22:40;16.10;99.90
53752;DHT22;41095;53.090;6.692;2022-07-12T05:25:07;16.00;99.90
53752;DHT22;41095;53.090;6.692;2022-07-12T05:27:35;16.00;99.90
53752;DHT22;41095;53.090;6.692;2022-07-12T05:30:01;15.90;99.90
53752;DHT22;41095;53.090;6.692;2022-07-12T05:32:27;16.00;99.90
53752;DHT22;41095;53.090;6.692;2022-07-12T05:34:53;16.00;99.90
53752;DHT22;41095;53.090;6.692;2022-07-12T05:37:18;16.00;99.90
53752;DHT22;41095;53.090;6.692;2022-07-12T05:39:44;16.10;99.90
53752;DHT22;41095;53.090;6.692;2022-07-12T05:42:10;16.20;99.90
53752;DHT22;41095;53.090;6.692;2022-07-12T05:44:36;16.30;99.90
53752;DHT22;41095;53.090;6.692;2022-07-12T05:47:02;16.50;99.90
53752;DHT22;41095;53.090;6.692;2022-07-12T05:49:28;16.70;99.90
53752;DHT22;41095;53.090;6.692;2022-07-12T05:51:53;16.80;99.90
53752;DHT22;41095;53.090;6.692;2022-07-12T05:54:37;17.00;99.90
53752;DHT22;41095;53.090;6.692;2022-07-12T05:57:03;17.10;99.90
53752;DHT22;41095;53.090;6.692;2022-07-12T05:59:29;17.40;99.90
53752;DHT22;41095;53.090;6.692;2022-07-12T06:01:56;17.50;99.90
53752;DHT22;41095;53.090;6.692;2022-07-12T06:04:22;17.70;99.90
53752;DHT22;41095;53.090;6.692;2022-07-12T06:06:47;17.80;99.90
53752;DHT22;41095;53.090;6.692;2022-07-12T06:09:13;18.00;99.90
53752;DHT22;41095;53.090;6.692;2022-07-12T06:11:39;18.10;99.90
53752;DHT22;41095;53.090;6.692;2022-07-12T06:14:04;18.20;99.90
53752;DHT22;41095;53.090;6.692;2022-07-12T06:16:30;18.40;99.90
53752;DHT22;41095;53.090;6.692;2022-07-12T06:18:56;18.50;99.90
53752;DHT22;41095;53.090;6.692;2022-07-12T06:21:21;18.50;99.90
53752;DHT22;41095;53.090;6.692;2022-07-12T06:23:47;18.60;99.90
53752;DHT22;41095;53.090;6.692;2022-07-12T06:26:12;18.70;99.90
53752;DHT22;41095;53.090;6.692;2022-07-12T06:28:38;18.70;99.90
53752;DHT22;41095;53.090;6.692;2022-07-12T06:31:04;18.80;99.90
53752;DHT22;41095;53.090;6.692;2022-07-12T06:33:30;18.90;99.90
53752;DHT22;41095;53.090;6.692;2022-07-12T06:35:56;19.10;99.90
53752;DHT22;41095;53.090;6.692;2022-07-12T06:38:21;19.20;99.90
53752;DHT22;41095;53.090;6.692;2022-07-12T06:40:47;19.40;99.90
53752;DHT22;41095;53.090;6.692;2022-07-12T06:43:13;19.50;99.90
53752;DHT22;41095;53.090;6.692;2022-07-12T06:45:40;19.50;99.90
53752;DHT22;41095;53.090;6.692;2022-07-12T06:48:05;19.60;99.90
53752;DHT22;41095;53.090;6.692;2022-07-12T06:50:32;19.80;99.90
53752;DHT22;41095;53.090;6.692;2022-07-12T06:52:58;20.00;99.90
53752;DHT22;41095;53.090;6.692;2022-07-12T06:55:23;20.20;99.90
53752;DHT22;41095;53.090;6.692;2022-07-12T06:57:49;20.40;99.90
53752;DHT22;41095;53.090;6.692;2022-07-12T07:00:15;20.60;99.90
53752;DHT22;41095;53.090;6.692;2022-07-12T07:02:41;20.80;99.90
53752;DHT22;41095;53.090;6.692;2022-07-12T07:05:07;21.00;99.90
53752;DHT22;41095;53.090;6.692;2022-07-12T07:07:33;21.30;99.90
53752;DHT22;41095;53.090;6.692;2022-07-12T07:09:59;21.80;99.90
53752;DHT22;41095;53.090;6.692;2022-07-12T07:12:24;22.20;99.90
53752;DHT22;41095;53.090;6.692;2022-07-12T07:14:50;22.70;99.90
53752;DHT22;41095;53.090;6.692;2022-07-12T07:17:16;23.00;99.90
53752;DHT22;41095;53.090;6.692;2022-07-12T07:19:43;23.40;99.90
53752;DHT22;41095;53.090;6.692;2022-07-12T07:22:10;23.80;99.90
53752;DHT22;41095;53.090;6.692;2022-07-12T07:24:36;24.00;99.90
53752;DHT22;41095;53.090;6.692;2022-07-12T07:27:02;24.00;99.90
53752;DHT22;41095;53.090;6.692;2022-07-12T07:29:27;24.30;99.90
53752;DHT22;41095;53.090;6.692;2022-07-12T07:32:11;24.60;99.90
53752;DHT22;41095;53.090;6.692;2022-07-12T07:34:37;25.10;99.90
53752;DHT22;41095;53.090;6.692;2022-07-12T07:37:03;26.10;99.90
53752;DHT22;41095;53.090;6.692;2022-07-12T07:39:29;26.90;99.90
53752;DHT22;41095;53.090;6.692;2022-07-12T07:41:55;27.70;99.90
53752;DHT22;41095;53.090;6.692;2022-07-12T07:44:21;27.90;99.90
53752;DHT22;41095;53.090;6.692;2022-07-12T07:46:46;28.30;99.90
53752;DHT22;41095;53.090;6.692;2022-07-12T07:49:12;28.60;99.20
53752;DHT22;41095;53.090;6.692;2022-07-12T07:51:38;29.10;98.60
53752;DHT22;41095;53.090;6.692;2022-07-12T07:54:03;29.20;97.80
53752;DHT22;41095;53.090;6.692;2022-07-12T07:56:29;29.10;97.30
53752;DHT22;41095;53.090;6.692;2022-07-12T07:58:55;29.30;96.10
53752;DHT22;41095;53.090;6.692;2022-07-12T08:01:21;29.00;96.40
53752;DHT22;41095;53.090;6.692;2022-07-12T08:04:06;29.50;96.20
53752;DHT22;41095;53.090;6.692;2022-07-12T08:06:32;29.70;95.80
53752;DHT22;41095;53.090;6.692;2022-07-12T08:08:58;29.80;95.20
53752;DHT22;41095;53.090;6.692;2022-07-12T08:11:24;30.00;95.00
53752;DHT22;41095;53.090;6.692;2022-07-12T08:13:49;29.90;94.90
53752;DHT22;41095;53.090;6.692;2022-07-12T08:16:15;30.00;94.50
53752;DHT22;41095;53.090;6.692;2022-07-12T08:18:41;30.10;93.90
53752;DHT22;41095;53.090;6.692;2022-07-12T08:21:06;30.40;94.20
53752;DHT22;41095;53.090;6.692;2022-07-12T08:23:32;30.60;93.80
53752;DHT22;41095;53.090;6.692;2022-07-12T08:25:58;30.50;93.40
53752;DHT22;41095;53.090;6.692;2022-07-12T08:28:23;30.70;93.50
53752;DHT22;41095;53.090;6.692;2022-07-12T08:30:49;30.80;93.30
53752;DHT22;41095;53.090;6.692;2022-07-12T08:33:15;30.50;93.10
53752;DHT22;41095;53.090;6.692;2022-07-12T08:35:41;30.30;93.30
53752;DHT22;41095;53.090;6.692;2022-07-12T08:38:08;29.90;93.10
53752;DHT22;41095;53.090;6.692;2022-07-12T08:40:35;29.60;93.10
53752;DHT22;41095;53.090;6.692;2022-07-12T08:43:01;29.60;93.20
53752;DHT22;41095;53.090;6.692;2022-07-12T08:45:27;29.50;93.40
53752;DHT22;41095;53.090;6.692;2022-07-12T08:47:53;29.30;93.80
53752;DHT22;41095;53.090;6.692;2022-07-12T08:50:20;29.10;93.30
53752;DHT22;41095;53.090;6.692;2022-07-12T08:52:48;29.10;93.70
53752;DHT22;41095;53.090;6.692;2022-07-12T08:57:48;28.60;93.00
53752;DHT22;41095;53.090;6.692;2022-07-12T09:00:14;28.80;93.60
53752;DHT22;41095;53.090;6.692;2022-07-12T09:02:48;28.90;93.90
53752;DHT22;41095;53.090;6.692;2022-07-12T09:05:16;28.80;92.70
53752;DHT22;41095;53.090;6.692;2022-07-12T09:07:42;28.90;93.40
53752;DHT22;41095;53.090;6.692;2022-07-12T09:10:10;28.90;93.40
53752;DHT22;41095;53.090;6.692;2022-07-12T09:12:36;28.70;93.40
53752;DHT22;41095;53.090;6.692;2022-07-12T09:15:31;28.80;93.60
53752;DHT22;41095;53.090;6.692;2022-07-12T09:20:35;29.00;93.00
53752;DHT22;41095;53.090;6.692;2022-07-12T09:23:10;29.10;92.40
53752;DHT22;41095;53.090;6.692;2022-07-12T09:25:43;29.10;93.40
53752;DHT22;41095;53.090;6.692;2022-07-12T09:28:09;29.10;93.30
53752;DHT22;41095;53.090;6.692;2022-07-12T09:30:36;29.20;93.40
53752;DHT22;41095;53.090;6.692;2022-07-12T09:33:04;29.50;93.20
53752;DHT22;41095;53.090;6.692;2022-07-12T09:38:38;29.40;92.90
53752;DHT22;41095;53.090;6.692;2022-07-12T09:41:05;29.50;92.30
53752;DHT22;41095;53.090;6.692;2022-07-12T09:43:32;28.90;92.90
53752;DHT22;41095;53.090;6.692;2022-07-12T09:45:58;28.80;93.00
53752;DHT22;41095;53.090;6.692;2022-07-12T09:48:29;28.50;92.90
53752;DHT22;41095;53.090;6.692;2022-07-12T09:50:56;28.40;93.20
53752;DHT22;41095;53.090;6.692;2022-07-12T09:53:32;28.30;93.10
53752;DHT22;41095;53.090;6.692;2022-07-12T09:56:03;28.60;93.70
53752;DHT22;41095;53.090;6.692;2022-07-12T09:58:56;28.60;92.90
53752;DHT22;41095;53.090;6.692;2022-07-12T10:01:25;28.70;93.00
53752;DHT22;41095;53.090;6.692;2022-07-12T10:03:52;28.90;93.10
53752;DHT22;41095;53.090;6.692;2022-07-12T10:06:28;28.90;92.90
53752;DHT22;41095;53.090;6.692;2022-07-12T10:08:55;28.90;92.60
53752;DHT22;41095;53.090;6.692;2022-07-12T10:11:24;29.10;93.20
53752;DHT22;41095;53.090;6.692;2022-07-12T10:13:51;29.20;93.00
53752;DHT22;41095;53.090;6.692;2022-07-12T10:16:24;29.40;92.60
53752;DHT22;41095;53.090;6.692;2022-07-12T10:21:57;30.00;91.70
53752;DHT22;41095;53.090;6.692;2022-07-12T10:29:48;29.90;92.20
53752;DHT22;41095;53.090;6.692;2022-07-12T10:32:34;29.70;91.70
53752;DHT22;41095;53.090;6.692;2022-07-12T10:35:05;29.10;90.60
53752;DHT22;41095;53.090;6.692;2022-07-12T10:37:32;28.90;92.80
53752;DHT22;41095;53.090;6.692;2022-07-12T10:40:17;28.90;92.40
53752;DHT22;41095;53.090;6.692;2022-07-12T10:48:03;29.80;92.60
53752;DHT22;41095;53.090;6.692;2022-07-12T11:01:05;30.50;90.70
53752;DHT22;41095;53.090;6.692;2022-07-12T11:03:53;30.30;90.70
53752;DHT22;41095;53.090;6.692;2022-07-12T11:06:22;30.30;90.30
53752;DHT22;41095;53.090;6.692;2022-07-12T11:11:21;30.10;89.10
53752;DHT22;41095;53.090;6.692;2022-07-12T11:13:48;30.10;90.40
53752;DHT22;41095;53.090;6.692;2022-07-12T11:16:14;30.30;89.10
53752;DHT22;41095;53.090;6.692;2022-07-12T11:18:40;30.30;89.70
53752;DHT22;41095;53.090;6.692;2022-07-12T11:21:06;30.20;89.00
53752;DHT22;41095;53.090;6.692;2022-07-12T11:23:31;30.30;89.20
53752;DHT22;41095;53.090;6.692;2022-07-12T11:25:59;30.10;87.80
53752;DHT22;41095;53.090;6.692;2022-07-12T11:28:27;30.00;89.10
53752;DHT22;41095;53.090;6.692;2022-07-12T11:31:00;30.10;88.60
53752;DHT22;41095;53.090;6.692;2022-07-12T11:33:30;29.90;88.40
53752;DHT22;41095;53.090;6.692;2022-07-12T11:35:59;29.90;89.60
53752;DHT22;41095;53.090;6.692;2022-07-12T11:38:25;29.70;89.80
53752;DHT22;41095;53.090;6.692;2022-07-12T11:40:58;29.70;89.70
53752;DHT22;41095;53.090;6.692;2022-07-12T11:43:25;29.70;89.80
53752;DHT22;41095;53.090;6.692;2022-07-12T11:45:52;29.60;89.00
53752;DHT22;41095;53.090;6.692;2022-07-12T11:48:19;29.60;89.80
53752;DHT22;41095;53.090;6.692;2022-07-12T11:50:45;29.70;90.00
53752;DHT22;41095;53.090;6.692;2022-07-12T11:53:22;29.60;90.10
53752;DHT22;41095;53.090;6.692;2022-07-12T11:55:51;29.70;90.30
53752;DHT22;41095;53.090;6.692;2022-07-12T11:58:18;29.60;89.40
53752;DHT22;41095;53.090;6.692;2022-07-12T12:00:44;29.70;89.60
53752;DHT22;41095;53.090;6.692;2022-07-12T12:03:12;29.70;89.30
53752;DHT22;41095;53.090;6.692;2022-07-12T12:05:38;29.60;88.50
53752;DHT22;41095;53.090;6.692;2022-07-12T12:08:05;29.40;87.40
53752;DHT22;41095;53.090;6.692;2022-07-12T12:10:31;29.30;87.20
53752;DHT22;41095;53.090;6.692;2022-07-12T12:12:58;29.40;88.40
53752;DHT22;41095;53.090;6.692;2022-07-12T12:15:30;29.60;88.30
53752;DHT22;41095;53.090;6.692;2022-07-12T12:18:05;29.80;88.30
53752;DHT22;41095;53.090;6.692;2022-07-12T12:20:34;29.90;87.30
53752;DHT22;41095;53.090;6.692;2022-07-12T12:23:16;30.00;86.70
53752;DHT22;41095;53.090;6.692;2022-07-12T12:25:43;30.00;87.00
53752;DHT22;41095;53.090;6.692;2022-07-12T12:28:10;29.80;85.90
53752;DHT22;41095;53.090;6.692;2022-07-12T12:30:48;29.90;85.80
53752;DHT22;41095;53.090;6.692;2022-07-12T12:33:42;29.90;85.90
53752;DHT22;41095;53.090;6.692;2022-07-12T12:36:26;29.90;87.50
53752;DHT22;41095;53.090;6.692;2022-07-12T12:38:54;29.90;87.10
53752;DHT22;41095;53.090;6.692;2022-07-12T12:41:20;29.70;84.70
53752;DHT22;41095;53.090;6.692;2022-07-12T12:43:48;29.80;83.70
53752;DHT22;41095;53.090;6.692;2022-07-12T12:46:21;29.90;83.60
53752;DHT22;41095;53.090;6.692;2022-07-12T12:48:48;29.70;83.50
53752;DHT22;41095;53.090;6.692;2022-07-12T12:51:14;29.90;85.10
53752;DHT22;41095;53.090;6.692;2022-07-12T12:53:42;29.80;84.70
53752;DHT22;41095;53.090;6.692;2022-07-12T12:56:13;29.90;84.70
53752;DHT22;41095;53.090;6.692;2022-07-12T12:58:40;30.00;85.50
53752;DHT22;41095;53.090;6.692;2022-07-12T13:01:07;30.10;84.80
53752;DHT22;41095;53.090;6.692;2022-07-12T13:03:33;30.10;84.50
53752;DHT22;41095;53.090;6.692;2022-07-12T13:05:59;30.20;85.10
53752;DHT22;41095;53.090;6.692;2022-07-12T13:08:25;30.20;84.90
53752;DHT22;41095;53.090;6.692;2022-07-12T13:10:51;30.20;83.40
53752;DHT22;41095;53.090;6.692;2022-07-12T13:13:38;30.10;83.40
53752;DHT22;41095;53.090;6.692;2022-07-12T13:16:04;29.90;83.50
53752;DHT22;41095;53.090;6.692;2022-07-12T13:18:30;29.70;82.60
53752;DHT22;41095;53.090;6.692;2022-07-12T13:20:56;29.70;82.00
53752;DHT22;41095;53.090;6.692;2022-07-12T13:23:21;29.90;83.30
53752;DHT22;41095;53.090;6.692;2022-07-12T13:25:47;29.90;83.20
53752;DHT22;41095;53.090;6.692;2022-07-12T13:28:13;30.00;82.40
53752;DHT22;41095;53.090;6.692;2022-07-12T13:30:39;29.90;83.40
53752;DHT22;41095;53.090;6.692;2022-07-12T13:33:05;29.90;83.00
53752;DHT22;41095;53.090;6.692;2022-07-12T13:35:31;29.90;83.90
53752;DHT22;41095;53.090;6.692;2022-07-12T13:37:57;30.00;85.00
53752;DHT22;41095;53.090;6.692;2022-07-12T13:40:23;30.00;83.10
53752;DHT22;41095;53.090;6.692;2022-07-12T13:42:52;29.90;83.80
53752;DHT22;41095;53.090;6.692;2022-07-12T13:45:23;29.60;81.80
53752;DHT22;41095;53.090;6.692;2022-07-12T13:47:50;29.50;82.90
53752;DHT22;41095;53.090;6.692;2022-07-12T13:50:17;29.40;83.50
53752;DHT22;41095;53.090;6.692;2022-07-12T13:52:43;29.40;84.00
53752;DHT22;41095;53.090;6.692;2022-07-12T13:55:11;29.40;84.50
53752;DHT22;41095;53.090;6.692;2022-07-12T13:57:38;29.30;84.20
53752;DHT22;41095;53.090;6.692;2022-07-12T14:00:07;29.30;84.20
53752;DHT22;41095;53.090;6.692;2022-07-12T14:02:37;29.40;83.90
53752;DHT22;41095;53.090;6.692;2022-07-12T14:05:05;29.40;84.00
53752;DHT22;41095;53.090;6.692;2022-07-12T14:07:31;29.30;83.10
53752;DHT22;41095;53.090;6.692;2022-07-12T14:09:57;29.40;83.40
53752;DHT22;41095;53.090;6.692;2022-07-12T14:12:23;29.30;83.40
53752;DHT22;41095;53.090;6.692;2022-07-12T14:14:49;29.40;83.00
53752;DHT22;41095;53.090;6.692;2022-07-12T14:17:33;29.50;83.20
53752;DHT22;41095;53.090;6.692;2022-07-12T14:19:59;29.40;82.80
53752;DHT22;41095;53.090;6.692;2022-07-12T14:22:25;29.40;81.90
53752;DHT22;41095;53.090;6.692;2022-07-12T14:24:51;29.40;81.30
53752;DHT22;41095;53.090;6.692;2022-07-12T14:27:17;29.30;80.90
53752;DHT22;41095;53.090;6.692;2022-07-12T14:29:43;29.10;81.30
53752;DHT22;41095;53.090;6.692;2022-07-12T14:32:09;29.00;82.60
53752;DHT22;41095;53.090;6.692;2022-07-12T14:34:35;29.00;83.70
53752;DHT22;41095;53.090;6.692;2022-07-12T14:37:01;29.00;84.20
53752;DHT22;41095;53.090;6.692;2022-07-12T14:39:28;29.00;84.10
53752;DHT22;41095;53.090;6.692;2022-07-12T14:41:54;28.90;84.50
53752;DHT22;41095;53.090;6.692;2022-07-12T14:44:21;29.00;84.80
53752;DHT22;41095;53.090;6.692;2022-07-12T14:46:47;29.00;84.50
53752;DHT22;41095;53.090;6.692;2022-07-12T14:49:12;29.00;84.60
53752;DHT22;41095;53.090;6.692;2022-07-12T14:51:38;28.90;84.40
53752;DHT22;41095;53.090;6.692;2022-07-12T14:54:04;28.80;84.80
53752;DHT22;41095;53.090;6.692;2022-07-12T14:56:29;28.80;85.30
53752;DHT22;41095;53.090;6.692;2022-07-12T14:58:55;28.80;84.80
53752;DHT22;41095;53.090;6.692;2022-07-12T15:01:21;28.90;84.30
53752;DHT22;41095;53.090;6.692;2022-07-12T15:03:47;29.00;84.50
53752;DHT22;41095;53.090;6.692;2022-07-12T15:06:12;29.00;84.50
53752;DHT22;41095;53.090;6.692;2022-07-12T15:08:38;29.00;84.80
53752;DHT22;41095;53.090;6.692;2022-07-12T15:11:04;28.90;85.10
53752;DHT22;41095;53.090;6.692;2022-07-12T15:13:30;28.90;86.20
53752;DHT22;41095;53.090;6.692;2022-07-12T15:15:56;28.80;87.20
53752;DHT22;41095;53.090;6.692;2022-07-12T15:18:22;28.80;87.20
53752;DHT22;41095;53.090;6.692;2022-07-12T15:20:50;28.60;86.30
53752;DHT22;41095;53.090;6.692;2022-07-12T15:23:15;28.50;86.90
53752;DHT22;41095;53.090;6.692;2022-07-12T15:25:41;28.50;87.20
53752;DHT22;41095;53.090;6.692;2022-07-12T15:28:07;28.30;86.80
53752;DHT22;41095;53.090;6.692;2022-07-12T15:30:33;28.30;86.60
53752;DHT22;41095;53.090;6.692;2022-07-12T15:32:59;28.30;87.30
53752;DHT22;41095;53.090;6.692;2022-07-12T15:35:25;28.20;86.40
53752;DHT22;41095;53.090;6.692;2022-07-12T15:37:52;28.10;85.50
53752;DHT22;41095;53.090;6.692;2022-07-12T15:40:17;28.10;85.70
53752;DHT22;41095;53.090;6.692;2022-07-12T15:42:45;28.10;87.00
53752;DHT22;41095;53.090;6.692;2022-07-12T15:45:11;28.00;87.10
53752;DHT22;41095;53.090;6.692;2022-07-12T15:47:37;28.00;87.60
53752;DHT22;41095;53.090;6.692;2022-07-12T15:50:04;27.90;86.80
53752;DHT22;41095;53.090;6.692;2022-07-12T15:52:30;27.80;88.30
53752;DHT22;41095;53.090;6.692;2022-07-12T15:55:15;27.80;89.10
53752;DHT22;41095;53.090;6.692;2022-07-12T15:57:41;27.70;89.20
53752;DHT22;41095;53.090;6.692;2022-07-12T16:00:07;27.70;89.80
53752;DHT22;41095;53.090;6.692;2022-07-12T16:02:34;27.70;90.30
53752;DHT22;41095;53.090;6.692;2022-07-12T16:05:00;27.60;89.60
53752;DHT22;41095;53.090;6.692;2022-07-12T16:07:26;27.60;90.30